createdAt,value
2024-01-12T00:00:08.794Z,17.90
2024-01-12T00:02:37.536Z,17.80
2024-01-12T00:05:08.568Z,17.07
2024-01-12T00:07:38.901Z,15.97
2024-01-12T00:10:09.995Z,16.13
2024-01-12T00:12:38.807Z,15.47
2024-01-12T00:15:08.685Z,17.80
2024-01-12T00:17:37.522Z,15.80
2024-01-12T00:20:07.485Z,18.00
2024-01-12T00:22:37.671Z,17.20
2024-01-12T00:25:07.328Z,14.03
2024-01-12T00:27:36.082Z,15.90
2024-01-12T00:30:05.100Z,16.00
2024-01-12T00:32:33.974Z,15.77
2024-01-12T00:35:02.796Z,19.00
2024-01-12T00:37:31.648Z,16.40
2024-01-12T00:40:01.859Z,16.07
2024-01-12T00:42:30.600Z,15.93
2024-01-12T00:44:59.440Z,16.27
2024-01-12T00:47:28.389Z,16.13
2024-01-12T00:49:57.085Z,16.30
2024-01-12T00:52:25.853Z,16.67
2024-01-12T00:54:54.774Z,17.37
2024-01-12T00:57:25.161Z,15.80
2024-01-12T00:59:54.038Z,17.03
2024-01-12T01:02:22.883Z,16.87
2024-01-12T01:04:51.742Z,16.83
2024-01-12T01:07:20.628Z,16.00
2024-01-12T01:09:49.307Z,15.87
2024-01-12T01:12:18.113Z,16.90
2024-01-12T01:14:48.325Z,16.03
2024-01-12T01:17:17.311Z,15.70
2024-01-12T01:19:46.119Z,19.43
2024-01-12T01:22:14.940Z,16.13
2024-01-12T01:24:42.638Z,16.00
2024-01-12T01:27:11.521Z,16.73
2024-01-12T01:29:40.265Z,17.80
2024-01-12T01:32:10.768Z,16.57
2024-01-12T01:34:39.633Z,20.17
2024-01-12T01:37:08.854Z,16.50
2024-01-12T01:39:37.733Z,16.67
2024-01-12T01:42:07.138Z,16.60
2024-01-12T01:44:35.992Z,17.40
2024-01-12T01:47:04.774Z,17.37
2024-01-12T01:49:35.251Z,16.97
2024-01-12T01:52:04.926Z,17.10
2024-01-12T01:54:35.659Z,16.37
2024-01-12T01:57:06.441Z,15.70
2024-01-12T01:59:36.708Z,18.40
2024-01-12T02:02:05.869Z,17.63
2024-01-12T02:04:36.216Z,17.53
2024-01-12T02:07:05.552Z,19.07
2024-01-12T02:09:34.680Z,19.00
2024-01-12T02:12:05.628Z,19.27
2024-01-12T02:14:34.803Z,18.07
2024-01-12T02:17:03.842Z,16.77
2024-01-12T02:19:32.743Z,17.50
2024-01-12T02:22:03.043Z,17.60
2024-01-12T02:24:31.882Z,16.87
2024-01-12T02:27:00.780Z,18.50
2024-01-12T02:29:29.773Z,17.17
2024-01-12T02:31:59.005Z,18.17
2024-01-12T02:34:28.132Z,18.80
2024-01-12T02:36:57.055Z,18.50
2024-01-12T02:39:27.346Z,18.20
2024-01-12T02:41:59.074Z,17.57
2024-01-12T02:44:28.094Z,17.10
2024-01-12T02:46:57.063Z,17.80
2024-01-12T02:49:26.099Z,17.30
2024-01-12T02:51:54.946Z,16.20
2024-01-12T02:54:23.784Z,18.17
2024-01-12T02:56:54.475Z,16.57
2024-01-12T02:59:23.385Z,17.57
2024-01-12T03:01:52.276Z,18.17
2024-01-12T03:04:21.278Z,16.17
2024-01-12T03:06:50.161Z,19.40
2024-01-12T03:09:19.362Z,17.37
2024-01-12T03:11:48.229Z,16.80
2024-01-12T03:14:18.632Z,17.07
2024-01-12T03:16:48.664Z,17.27
2024-01-12T03:19:17.620Z,19.30
2024-01-12T03:21:46.638Z,18.20
2024-01-12T03:24:15.524Z,17.27
2024-01-12T03:26:44.523Z,19.63
2024-01-12T03:29:13.379Z,18.40
2024-01-12T03:31:43.653Z,17.60
2024-01-12T03:34:12.632Z,19.00
2024-01-12T03:36:41.567Z,20.17
2024-01-12T03:39:11.801Z,17.50
2024-01-12T03:41:40.657Z,18.93
2024-01-12T03:44:09.476Z,17.77
2024-01-12T03:46:39.315Z,19.20
2024-01-12T03:49:09.655Z,18.50
2024-01-12T03:51:38.714Z,19.27
2024-01-12T03:54:08.138Z,17.30
2024-01-12T03:56:36.968Z,19.67
2024-01-12T03:59:05.895Z,17.60
2024-01-12T04:01:34.796Z,18.57
2024-01-12T04:04:03.683Z,19.13
2024-01-12T04:06:34.644Z,18.30
2024-01-12T04:09:03.688Z,19.47
2024-01-12T04:11:32.704Z,19.73
2024-01-12T04:14:01.592Z,19.10
2024-01-12T04:16:30.464Z,18.83
2024-01-12T04:18:59.687Z,18.47
2024-01-12T04:21:28.636Z,18.70
2024-01-12T04:23:59.055Z,20.17
2024-01-12T04:26:28.085Z,19.07
2024-01-12T04:28:57.524Z,21.50
2024-01-12T04:31:26.392Z,20.60
2024-01-12T04:33:55.367Z,19.07
2024-01-12T04:36:24.941Z,19.57
2024-01-12T04:38:53.829Z,20.20
2024-01-12T04:41:24.250Z,20.33
2024-01-12T04:43:53.052Z,20.07
2024-01-12T04:46:21.939Z,20.83
2024-01-12T04:48:50.861Z,20.47
2024-01-12T04:51:20.622Z,20.00
2024-01-12T04:53:49.492Z,20.07
2024-01-12T04:56:19.526Z,20.50
2024-01-12T04:58:49.852Z,19.80
2024-01-12T05:01:18.751Z,20.37
2024-01-12T05:03:47.621Z,21.53
2024-01-12T05:06:16.474Z,17.87
2024-01-12T05:08:45.506Z,17.90
2024-01-12T05:11:14.425Z,19.43
2024-01-12T05:13:43.304Z,17.40
2024-01-12T05:16:13.596Z,17.87
2024-01-12T05:18:42.600Z,20.43
2024-01-12T05:21:11.739Z,19.53
2024-01-12T05:23:40.645Z,17.70
2024-01-12T05:26:09.539Z,16.60
2024-01-12T05:28:38.392Z,19.53
2024-01-12T05:31:07.590Z,18.30
2024-01-12T05:33:38.545Z,20.30
2024-01-12T05:36:08.142Z,18.73
2024-01-12T05:38:37.070Z,18.70
2024-01-12T05:41:06.552Z,16.50
2024-01-12T05:43:35.491Z,19.80
2024-01-12T05:46:04.436Z,20.50
2024-01-12T05:48:33.475Z,21.67
2024-01-12T05:51:04.038Z,20.47
2024-01-12T05:53:33.190Z,18.00
2024-01-12T05:56:02.124Z,19.93
2024-01-12T05:58:31.316Z,20.33
2024-01-12T06:01:00.286Z,25.03
2024-01-12T06:03:29.748Z,19.17
2024-01-12T06:05:59.164Z,17.37
2024-01-12T06:08:29.961Z,31.57
2024-01-12T06:10:58.890Z,23.20
2024-01-12T06:13:27.897Z,22.17
2024-01-12T06:15:57.720Z,19.07
2024-01-12T06:18:27.167Z,18.03
2024-01-12T06:20:56.082Z,24.60
2024-01-12T06:23:25.009Z,18.63
2024-01-12T06:25:55.265Z,20.10
2024-01-12T06:28:24.102Z,23.93
2024-01-12T06:30:55.270Z,26.50
2024-01-12T06:33:24.676Z,28.90
2024-01-12T06:35:53.778Z,29.80
2024-01-12T06:38:22.751Z,25.80
2024-01-12T06:40:51.683Z,33.87
2024-01-12T06:43:22.131Z,32.63
2024-01-12T06:45:51.185Z,18.43
2024-01-12T06:48:20.072Z,18.90
2024-01-12T06:50:48.904Z,18.10
2024-01-12T06:53:17.800Z,19.77
2024-01-12T06:55:46.812Z,17.63
2024-01-12T06:58:15.656Z,17.53
2024-01-12T07:00:46.229Z,18.30
2024-01-12T07:03:15.351Z,20.90
2024-01-12T07:05:44.375Z,21.77
2024-01-12T07:08:13.251Z,19.30
2024-01-12T07:10:42.073Z,14.10
2024-01-12T07:13:10.905Z,14.60
2024-01-12T07:15:40.011Z,17.63
2024-01-12T07:18:10.415Z,16.03
2024-01-12T07:20:39.459Z,17.27
2024-01-12T07:23:08.479Z,13.20
2024-01-12T07:25:38.812Z,16.97
2024-01-12T07:28:08.437Z,14.50
2024-01-12T07:30:37.783Z,16.03
2024-01-12T07:33:07.193Z,16.60
2024-01-12T07:35:38.199Z,16.57
2024-01-12T07:38:07.226Z,17.20
2024-01-12T07:40:37.519Z,14.20
2024-01-12T07:43:10.673Z,14.40
2024-01-12T07:45:40.085Z,14.93
2024-01-12T07:48:10.353Z,14.80
2024-01-12T07:50:46.061Z,14.30
2024-01-12T07:53:18.741Z,15.87
2024-01-12T07:55:50.931Z,15.50
2024-01-12T07:58:22.115Z,15.23
2024-01-12T08:00:52.291Z,13.97
2024-01-12T08:03:21.697Z,17.93
2024-01-12T08:05:52.716Z,17.77
2024-01-12T08:08:22.604Z,16.90
2024-01-12T08:10:52.436Z,15.03
2024-01-12T08:13:21.877Z,14.40
2024-01-12T08:15:54.286Z,16.03
2024-01-12T08:18:23.971Z,15.17
2024-01-12T08:20:55.625Z,13.47
2024-01-12T08:23:26.976Z,13.97
2024-01-12T08:25:56.503Z,17.93
2024-01-12T08:28:25.579Z,14.33
2024-01-12T08:30:54.755Z,15.03
2024-01-12T08:33:23.808Z,16.10
2024-01-12T08:35:54.290Z,15.40
2024-01-12T08:38:23.191Z,14.77
2024-01-12T08:40:52.045Z,15.40
2024-01-12T08:43:20.869Z,15.70
2024-01-12T08:45:50.053Z,15.27
2024-01-12T08:48:20.767Z,16.37
2024-01-12T08:50:49.799Z,15.20
2024-01-12T08:53:20.149Z,15.47
2024-01-12T08:55:49.066Z,17.20
2024-01-12T08:58:18.194Z,14.87
2024-01-12T09:00:47.023Z,16.63
2024-01-12T09:03:16.368Z,14.00
2024-01-12T09:05:45.756Z,15.23
2024-01-12T09:08:14.776Z,16.47
2024-01-12T09:10:45.536Z,13.10
2024-01-12T09:13:15.067Z,13.57
2024-01-12T09:15:43.957Z,16.60
2024-01-12T09:18:12.951Z,17.63
2024-01-12T09:20:42.094Z,16.00
2024-01-12T09:23:11.140Z,16.13
2024-01-12T09:25:39.986Z,14.83
2024-01-12T09:28:10.276Z,13.30
2024-01-12T09:30:41.022Z,12.70
2024-01-12T09:33:10.007Z,15.10
2024-01-12T09:35:38.933Z,15.30
2024-01-12T09:38:07.896Z,15.17
2024-01-12T09:40:36.703Z,12.77
2024-01-12T09:43:14.962Z,13.30
2024-01-12T09:45:46.215Z,12.60
2024-01-12T09:48:15.601Z,12.53
2024-01-12T09:50:46.132Z,14.50
2024-01-12T09:53:14.925Z,11.97
2024-01-12T09:55:44.102Z,11.63
2024-01-12T09:58:15.531Z,10.77
2024-01-12T10:00:46.044Z,11.50
2024-01-12T10:03:20.290Z,11.77
2024-01-12T10:05:49.327Z,10.90
2024-01-12T10:08:18.237Z,12.17
2024-01-12T10:10:47.143Z,11.13
2024-01-12T10:13:18.534Z,10.83
2024-01-12T10:15:47.423Z,11.47
2024-01-12T10:18:16.417Z,10.20
2024-01-12T10:20:45.438Z,8.73
2024-01-12T10:23:21.015Z,10.50
2024-01-12T10:25:58.986Z,10.73
2024-01-12T10:28:37.067Z,9.70
2024-01-12T10:31:09.024Z,10.90
2024-01-12T10:33:38.550Z,10.83
2024-01-12T10:36:09.588Z,10.10
2024-01-12T10:38:39.547Z,8.97
2024-01-12T10:41:09.159Z,11.00
2024-01-12T10:43:41.318Z,11.37
2024-01-12T10:46:14.263Z,11.63
2024-01-12T10:48:49.038Z,8.50
2024-01-12T10:51:21.769Z,8.80
2024-01-12T10:54:02.270Z,10.37
2024-01-12T10:56:32.664Z,9.83
2024-01-12T10:59:03.174Z,8.10
2024-01-12T11:01:32.093Z,7.70
2024-01-12T11:04:02.028Z,7.70
2024-01-12T11:06:32.234Z,10.57
2024-01-12T11:09:02.968Z,16.20
2024-01-12T11:11:43.210Z,12.83
2024-01-12T11:14:14.211Z,13.20
2024-01-12T11:16:43.739Z,11.77
2024-01-12T11:19:15.778Z,14.00
2024-01-12T11:21:45.489Z,12.40
2024-01-12T11:24:14.739Z,10.83
2024-01-12T11:26:44.266Z,11.67
2024-01-12T11:29:18.810Z,9.50
2024-01-12T11:31:54.008Z,8.53
2024-01-12T11:34:23.157Z,9.00
2024-01-12T11:37:00.386Z,8.30
2024-01-12T11:39:33.879Z,7.73
2024-01-12T11:42:07.067Z,8.30
2024-01-12T11:44:38.200Z,8.73
2024-01-12T11:47:09.886Z,9.33
2024-01-12T11:49:39.027Z,9.70
2024-01-12T11:52:08.812Z,10.57
2024-01-12T11:54:37.656Z,11.70
2024-01-12T11:57:08.212Z,11.20
2024-01-12T11:59:40.630Z,10.03
2024-01-12T12:02:11.277Z,10.07
2024-01-12T12:04:40.093Z,10.23
2024-01-12T12:07:09.322Z,10.70
2024-01-12T12:09:39.940Z,10.50
2024-01-12T12:12:10.474Z,8.80
2024-01-12T12:14:41.084Z,10.27
2024-01-12T12:17:10.004Z,7.70
2024-01-12T12:19:39.114Z,6.60
2024-01-12T12:22:08.114Z,7.23
2024-01-12T12:24:39.432Z,7.90
2024-01-12T12:27:09.780Z,7.63
2024-01-12T12:29:42.543Z,8.87
2024-01-12T12:32:13.102Z,8.57
2024-01-12T12:34:42.536Z,8.00
2024-01-12T12:37:12.238Z,8.47
2024-01-12T12:39:41.185Z,8.30
2024-01-12T12:42:12.821Z,8.77
2024-01-12T12:44:45.188Z,8.10
2024-01-12T12:47:14.385Z,8.53
2024-01-12T12:49:44.426Z,10.30
2024-01-12T12:52:14.099Z,10.33
2024-01-12T12:54:43.023Z,9.77
2024-01-12T12:57:12.577Z,8.83
2024-01-12T12:59:41.582Z,10.30
2024-01-12T13:02:14.192Z,10.17
2024-01-12T13:04:43.078Z,10.60
2024-01-12T13:07:12.460Z,9.50
2024-01-12T13:09:41.540Z,9.70
2024-01-12T13:12:11.780Z,11.07
2024-01-12T13:14:40.998Z,10.33
2024-01-12T13:17:12.552Z,9.80
2024-01-12T13:19:41.978Z,8.97
2024-01-12T13:22:13.464Z,11.83
2024-01-12T13:24:43.422Z,10.33
2024-01-12T13:27:14.665Z,9.70
2024-01-12T13:29:43.605Z,9.60
2024-01-12T13:32:14.292Z,10.37
2024-01-12T13:34:46.294Z,8.70
2024-01-12T13:37:16.512Z,9.50
2024-01-12T13:39:45.780Z,10.50
2024-01-12T13:42:15.122Z,9.43
2024-01-12T13:44:44.034Z,10.47
2024-01-12T13:47:14.764Z,10.50
2024-01-12T13:49:44.050Z,9.60
2024-01-12T13:52:13.484Z,9.47
2024-01-12T13:54:42.414Z,10.27
2024-01-12T13:57:11.763Z,8.23
2024-01-12T13:59:40.923Z,8.20
2024-01-12T14:02:10.743Z,8.67
2024-01-12T14:04:41.113Z,8.57
2024-01-12T14:07:10.260Z,10.50
2024-01-12T14:09:39.336Z,8.60
2024-01-12T14:12:10.717Z,8.70
2024-01-12T14:14:40.604Z,8.03
2024-01-12T14:17:10.146Z,8.63
2024-01-12T14:19:40.970Z,8.47
2024-01-12T14:22:09.855Z,8.93
2024-01-12T14:24:38.738Z,8.27
2024-01-12T14:27:09.142Z,6.83
2024-01-12T14:29:38.604Z,8.60
2024-01-12T14:32:07.602Z,7.27
2024-01-12T14:34:36.633Z,8.03
2024-01-12T14:37:07.060Z,9.07
2024-01-12T14:39:36.128Z,10.50
2024-01-12T14:42:05.527Z,11.00
2024-01-12T14:44:34.384Z,12.00
2024-01-12T14:47:04.291Z,8.13
2024-01-12T14:49:33.351Z,9.50
2024-01-12T14:52:02.528Z,7.80
2024-01-12T14:54:35.316Z,8.80
2024-01-12T14:57:05.709Z,8.77
2024-01-12T14:59:34.647Z,9.13
2024-01-12T15:02:03.558Z,9.60
2024-01-12T15:04:32.556Z,7.87
2024-01-12T15:07:02.703Z,8.50
2024-01-12T15:09:33.497Z,7.70
2024-01-12T15:12:07.145Z,9.43
2024-01-12T15:14:36.949Z,8.47
2024-01-12T15:17:06.351Z,8.00
2024-01-12T15:19:35.496Z,8.40
2024-01-12T15:22:04.674Z,8.33
2024-01-12T15:24:36.968Z,8.63
2024-01-12T15:27:08.994Z,8.50
2024-01-12T15:29:38.203Z,7.30
2024-01-12T15:32:07.337Z,8.70
2024-01-12T15:34:36.539Z,10.07
2024-01-12T15:37:05.701Z,10.60
2024-01-12T15:39:36.166Z,10.97
2024-01-12T15:42:05.425Z,10.53
2024-01-12T15:44:36.429Z,10.87
2024-01-12T15:47:05.478Z,11.60
2024-01-12T15:49:34.606Z,11.37
2024-01-12T15:52:03.725Z,12.43
2024-01-12T15:54:32.657Z,10.90
2024-01-12T15:57:03.101Z,11.50
2024-01-12T15:59:32.165Z,12.10
2024-01-12T16:02:01.151Z,11.70
2024-01-12T16:04:30.181Z,11.90
2024-01-12T16:06:59.355Z,11.87
2024-01-12T16:09:28.410Z,10.90
2024-01-12T16:11:57.497Z,9.57
2024-01-12T16:14:27.990Z,10.37
2024-01-12T16:16:56.998Z,9.73
2024-01-12T16:19:26.020Z,8.57
2024-01-12T16:21:57.998Z,9.03
2024-01-12T16:24:26.956Z,10.20
2024-01-12T16:26:55.954Z,8.50
2024-01-12T16:29:25.834Z,9.13
2024-01-12T16:31:56.565Z,8.93
2024-01-12T16:34:26.538Z,10.27
2024-01-12T16:36:56.173Z,9.70
2024-01-12T16:39:26.160Z,8.97
2024-01-12T16:41:58.033Z,8.80
2024-01-12T16:44:29.035Z,8.20
2024-01-12T16:46:59.604Z,8.50
2024-01-12T16:49:28.554Z,8.10
2024-01-12T16:51:57.653Z,7.40
2024-01-12T16:54:26.794Z,9.57
2024-01-12T16:56:56.322Z,8.33
2024-01-12T16:59:25.286Z,9.07
2024-01-12T17:01:54.320Z,8.53
2024-01-12T17:04:25.071Z,9.57
2024-01-12T17:07:04.904Z,9.43
2024-01-12T17:09:34.430Z,8.80
2024-01-12T17:12:03.462Z,12.60
2024-01-12T17:14:32.509Z,11.23
2024-01-12T17:17:02.647Z,11.50
2024-01-12T17:19:33.249Z,9.40
2024-01-12T17:22:02.432Z,10.80
2024-01-12T17:24:31.369Z,10.63
2024-01-12T17:27:00.482Z,7.90
2024-01-12T17:29:29.782Z,11.40
2024-01-12T17:31:58.903Z,10.27
2024-01-12T17:34:28.131Z,7.70
2024-01-12T17:36:58.664Z,9.20
2024-01-12T17:39:27.660Z,9.10
2024-01-12T17:41:56.657Z,8.57
2024-01-12T17:44:25.785Z,10.13
2024-01-12T17:46:54.787Z,10.80
2024-01-12T17:49:24.855Z,10.60
2024-01-12T17:51:54.033Z,9.50
2024-01-12T17:54:25.431Z,8.20
2024-01-12T17:56:54.437Z,8.67
2024-01-12T17:59:23.465Z,7.70
2024-01-12T18:01:52.587Z,9.37
2024-01-12T18:04:21.569Z,8.97
2024-01-12T18:06:50.768Z,9.60
2024-01-12T18:09:19.793Z,9.63
2024-01-12T18:11:50.253Z,9.77
2024-01-12T18:14:19.234Z,12.33
2024-01-12T18:16:49.944Z,9.50
2024-01-12T18:19:20.340Z,8.67
2024-01-12T18:21:49.348Z,9.57
2024-01-12T18:24:18.337Z,9.20
2024-01-12T18:26:47.405Z,11.47
2024-01-12T18:29:17.799Z,10.30
2024-01-12T18:31:46.869Z,11.70
2024-01-12T18:34:15.934Z,12.03
2024-01-12T18:36:45.113Z,10.57
2024-01-12T18:39:14.875Z,10.30
2024-01-12T18:41:43.945Z,8.77
2024-01-12T18:44:13.203Z,10.20
2024-01-12T18:46:44.492Z,9.13
2024-01-12T18:49:13.758Z,8.30
2024-01-12T18:51:43.342Z,9.00
2024-01-12T18:54:12.264Z,8.50
2024-01-12T18:56:41.336Z,9.83
2024-01-12T18:59:10.177Z,9.33
2024-01-12T19:01:39.174Z,9.00
2024-01-12T19:04:09.608Z,9.60
2024-01-12T19:06:38.777Z,9.33
2024-01-12T19:09:07.882Z,7.60
2024-01-12T19:11:37.030Z,9.10
2024-01-12T19:14:06.417Z,9.53
2024-01-12T19:16:35.926Z,10.30
2024-01-12T19:19:06.226Z,10.27
2024-01-12T19:21:36.771Z,10.07
2024-01-12T19:24:06.457Z,11.67
2024-01-12T19:26:35.561Z,10.37
2024-01-12T19:29:04.627Z,10.37
2024-01-12T19:31:33.696Z,9.40
2024-01-12T19:34:02.886Z,9.63
2024-01-12T19:36:32.020Z,10.60
2024-01-12T19:39:02.488Z,9.30
2024-01-12T19:41:31.423Z,12.80
2024-01-12T19:44:01.284Z,9.83
2024-01-12T19:46:30.421Z,11.40
2024-01-12T19:48:59.547Z,10.67
2024-01-12T19:51:29.031Z,10.40
2024-01-12T19:53:58.356Z,12.00
2024-01-12T19:56:28.922Z,11.80
2024-01-12T19:59:04.551Z,12.43
2024-01-12T20:01:33.789Z,12.83
2024-01-12T20:04:03.983Z,13.37
2024-01-12T20:06:33.083Z,13.47
2024-01-12T20:09:02.650Z,13.50
2024-01-12T20:11:33.413Z,13.63
2024-01-12T20:14:04.268Z,14.20
2024-01-12T20:16:33.334Z,14.37
2024-01-12T20:19:02.847Z,14.20
2024-01-12T20:21:32.510Z,15.27
2024-01-12T20:24:01.563Z,16.47
2024-01-12T20:26:31.985Z,14.03
2024-01-12T20:29:01.035Z,14.20
2024-01-12T20:31:29.975Z,16.50
2024-01-12T20:33:59.353Z,15.80
2024-01-12T20:36:30.674Z,15.33
2024-01-12T20:39:00.241Z,17.77
2024-01-12T20:41:29.293Z,15.50
2024-01-12T20:44:00.348Z,17.10
2024-01-12T20:46:29.483Z,16.03
2024-01-12T20:48:59.108Z,17.13
2024-01-12T20:51:28.285Z,17.20
2024-01-12T20:53:57.692Z,16.70
2024-01-12T20:56:26.723Z,17.07
2024-01-12T20:58:55.909Z,17.30
2024-01-12T21:01:26.517Z,15.07
2024-01-12T21:03:55.590Z,15.90
2024-01-12T21:06:24.709Z,16.83
2024-01-12T21:08:53.866Z,16.67
2024-01-12T21:11:22.918Z,16.00
2024-01-12T21:13:52.040Z,16.77
2024-01-12T21:16:21.532Z,14.63
2024-01-12T21:18:52.315Z,13.93
2024-01-12T21:21:21.554Z,13.70
2024-01-12T21:23:50.539Z,14.60
2024-01-12T21:26:19.548Z,12.67
2024-01-12T21:28:48.683Z,12.80
2024-01-12T21:31:17.726Z,10.20
2024-01-12T21:33:47.962Z,13.80
2024-01-12T21:36:18.918Z,13.33
2024-01-12T21:38:47.930Z,13.40
2024-01-12T21:41:17.888Z,13.40
2024-01-12T21:43:46.902Z,14.60
2024-01-12T21:46:15.936Z,12.67
2024-01-12T21:48:45.040Z,12.60
2024-01-12T21:51:14.097Z,13.10
2024-01-12T21:53:44.645Z,13.70
2024-01-12T21:56:13.791Z,13.77
2024-01-12T21:58:42.801Z,12.30
2024-01-12T22:01:11.775Z,12.43
2024-01-12T22:03:40.890Z,13.57
2024-01-12T22:06:10.147Z,14.00
2024-01-12T22:08:39.381Z,13.17
2024-01-12T22:11:09.783Z,11.90
2024-01-12T22:13:38.757Z,12.23
2024-01-12T22:16:09.861Z,10.73
2024-01-12T22:18:39.385Z,14.30
2024-01-12T22:21:08.663Z,13.50
2024-01-12T22:23:37.578Z,12.20
2024-01-12T22:26:07.113Z,15.30
2024-01-12T22:28:37.595Z,13.60
2024-01-12T22:31:06.905Z,14.27
2024-01-12T22:33:35.992Z,13.73
2024-01-12T22:36:05.653Z,13.90
2024-01-12T22:38:34.650Z,13.50
2024-01-12T22:41:03.708Z,15.00
2024-01-12T22:43:32.660Z,13.80
2024-01-12T22:46:03.217Z,15.67
2024-01-12T22:48:32.453Z,16.53
2024-01-12T22:51:01.594Z,16.90
2024-01-12T22:53:30.721Z,14.33
2024-01-12T22:55:59.823Z,16.60
2024-01-12T22:58:28.716Z,16.90
2024-01-12T23:00:57.815Z,17.90
2024-01-12T23:03:28.454Z,14.17
2024-01-12T23:05:57.522Z,16.83
2024-01-12T23:08:26.530Z,17.23
2024-01-12T23:10:55.329Z,15.87
2024-01-12T23:13:24.251Z,14.60
2024-01-12T23:15:53.263Z,15.40
2024-01-12T23:18:22.334Z,16.77
2024-01-12T23:20:52.973Z,17.37
2024-01-12T23:23:22.035Z,15.77
2024-01-12T23:25:50.898Z,15.80
2024-01-12T23:28:19.910Z,15.03
2024-01-12T23:30:49.017Z,16.23
2024-01-12T23:33:18.368Z,14.87
2024-01-12T23:35:47.564Z,14.63
2024-01-12T23:38:28.811Z,14.10
2024-01-12T23:41:04.681Z,13.57
2024-01-12T23:43:33.754Z,12.70
2024-01-12T23:46:03.066Z,13.87
2024-01-12T23:48:37.155Z,13.37
2024-01-12T23:51:09.554Z,13.87
2024-01-12T23:53:40.022Z,14.20
2024-01-12T23:56:08.976Z,15.23
2024-01-12T23:58:39.344Z,13.87
